Terminal Aerodrome Forecast
Issued by NWS

Home | Current Version | Previous Version | Text Only | Print | Product List | Glossary On
Versions: 1 2 3 4 5 6 7 8 9 10 11 12 13 14 15 16 17 18 19 20 21
000
FTUS44 KTSA 011700
TAFBVO
TAF
KBVO 011740Z 0118/0218 03005KT P6SM BKN012
     FM012000 02004KT P6SM SCT015 OVC022
     FM020100 02003KT P6SM BKN025
     FM021500 05008KT P6SM SCT010 BKN020=

USA.gov is the U.S. government's official web portal to all federal, state and local government web resources and services.